Terminal Aerodrome Forecast
Issued by NWS

Current Version | Previous Version | Graphics & Text | Print | Product List | Glossary On
Versions: 1 2 3 4 5 6 7 8 9 10 11 12 13 14 15 16 17 18 19 20 21 22 23 24 25 26 27 28 29 30 31 32
000
FTUS41 KILN 202300
TAFLUK
TAF
KLUK 202338Z 2100/2124 00000KT P6SM SCT150 BKN250
     FM210500 00000KT 4SM BR SCT150
      TEMPO 2106/2110 2SM BR
     FM211000 22004KT 3SM -SHRA BR VCTS BKN050CB
     FM211500 23006KT P6SM VCSH SCT035 BKN150
     FM211800 24007KT P6SM VCTS BKN040CB
     FM212000 23005KT P6SM SCT040 BKN150=

USA.gov is the U.S. government's official web portal to all federal, state and local government web resources and services.